Terminal Aerodrome Forecast
Issued by NWS

Home | Current Version | Previous Version | Text Only | Print | Product List | Glossary On
Versions: 1 2 3 4 5 6 7 8 9 10 11 12 13
000
FTAK31 PAJN 210500
TAFAWG
TAF
PAWG 210520Z 2106/2206 25005KT 6SM -SHRA BR SCT025 OVC035
      TEMPO 2106/2109 VRB05KT 5SM -RA BR FEW006 BKN025 OVC035
     FM211200 VRB03KT P6SM SCT025 BKN070
     FM212100 29006KT P6SM VCSH BKN050 BKN070
      AMD LTD TO CLD VIS AND WIND 2106/2115=

USA.gov is the U.S. government's official web portal to all federal, state and local government web resources and services.